• Join FlightAware (Why Join?)
  • Login
  • US Flag 
07:42PM EDT


 

Airport Tracker/Info


-or-


 

Live Flight TrackerFlight Track Log ✈ N321AR ✈ 10-May-2013 ✈ KLRD - KFCM

Flight Track Log - Related Links

Times and Time Zones

All times are in EDT time to prevent confusion due to time zone crossing. See the N321AR flight status page for this flight to view local times or setup timezone preferences in your user account.

Time Position Orientation Groundspeed Altitude Reporting Facility
EDT Latitude Longitude Course Direction KTS MPH feet Rate Location/Type
02:13PM 27.5219 -99.4231 84° East 224 258 3,900  Level Houston Center
02:14PM 27.5783 -99.3950 24° Northeast 222 255 6,700 2,460 Climbing Houston Center
02:15PM 27.6353 -99.3703 21° North 219 252 9,000 2,280 Climbing Houston Center
02:16PM 27.6972 -99.3425 22° Northeast 226 260 11,500 2,400 Climbing Houston Center
02:17PM 28.2098 -99.1387 21° North  Level FlightAware Approximate
02:18PM 28.3216 -99.0877 27° Northeast  Level FlightAware Approximate
02:18PM 27.7789 -99.3072 21° North 244 281 14,000  Level Houston Center
02:19PM 27.8536 -99.2700 24° Northeast 282 325 16,000 1,680 Climbing Houston Center
02:20PM 27.9364 -99.2364 20° North 309 356 17,600 1,500 Climbing Houston Center
02:21PM 28.0289 -99.2181 10° North 336 387 19,100 1,500 Climbing Houston Center
02:22PM 28.1272 -99.2108 North 351 404 20,800 1,620 Climbing Houston Center
02:23PM 28.2275 -99.2069 North 358 412 22,500 1,740 Climbing Houston Center
02:24PM 28.3511 -99.1939 North 370 426 24,500 1,740 Climbing Houston Center
02:25PM 28.4553 -99.1550 18° North 391 450 26,200 1,560 Climbing Houston Center
02:26PM 28.5611 -99.1217 15° North 394 453 27,800 1,260 Climbing Houston Center
02:27PM 28.6689 -99.0881 15° North 399 459 28,900 1,020 Climbing Houston Center
02:28PM 28.7819 -99.0528 15° North 416 479 30,000 1,020 Climbing Houston Center
02:29PM 28.8961 -99.0158 16° North 424 488 31,100 1,080 Climbing Houston Center
02:30PM 29.0356 -98.9736 15° North 436 502 32,300 960 Climbing Houston Center
02:31PM 29.1625 -98.9328 16° North 439 505 33,200 840 Climbing Houston Center
02:32PM 29.2842 -98.8944 15° North 450 518 34,100 840 Climbing Houston Center
02:33PM 29.4044 -98.8553 16° North 449 517 35,000 840 Climbing Houston Center
02:34PM 29.5350 -98.8133 16° North 449 517 35,900 840 Climbing Houston Center
02:35PM 29.6556 -98.7753 15° North 448 516 36,800 840 Climbing Houston Center
02:36PM 29.7844 -98.7331 16° North 444 511 37,700 840 Climbing Houston Center
02:37PM 29.9017 -98.6958 15° North 436 502 38,600 600 Climbing Houston Center
02:38PM 30.0172 -98.6581 16° North 432 497 39,000 180 Climbing Houston Center
02:39PM 30.1453 -98.6158 16° North 442 509 39,000  Level Houston Center
02:40PM 30.2686 -98.5756 16° North 457 526 39,000  Level Houston Center
02:41PM 30.3872 -98.5361 16° North 467 537 39,000  Level Houston Center
02:42PM 30.5167 -98.4950 15° North 476 548 39,000  Level Houston Center
02:43PM 30.6692 -98.4456 16° North 480 552 39,000  Level Houston Center
02:44PM 30.7989 -98.4022 16° North 480 552 39,000  Level Houston Center
02:45PM 30.9292 -98.3597 16° North 480 552 39,000  Level Houston Center
02:47PM 31.0681 -98.3156 15° North 480 552 39,000  Level Fort Worth Center
02:48PM 31.1956 -98.2731 16° North 475 547 39,000  Level Fort Worth Center
02:49PM 31.3275 -98.2306 15° North 475 547 39,000  Level Fort Worth Center
02:50PM 31.4594 -98.1831 17° North 480 552 39,000  Level Fort Worth Center
02:51PM 31.5889 -98.1425 15° North 479 551 39,000  Level Fort Worth Center
02:52PM 31.7186 -98.0972 17° North 479 551 39,000  Level Fort Worth Center
02:53PM 31.8525 -98.0542 15° North 479 551 39,000  Level Fort Worth Center
02:54PM 31.9675 -98.0133 17° North 479 551 39,000  Level Fort Worth Center
02:55PM 32.1119 -97.9628 17° North 478 550 39,000  Level Fort Worth Center
02:56PM 32.2289 -97.9242 16° North 478 550 39,000  Level Fort Worth Center
02:57PM 32.3775 -97.8733 16° North 478 550 39,000  Level Fort Worth Center
02:58PM 32.4944 -97.8347 16° North 484 557 39,000  Level Fort Worth Center
02:59PM 32.6386 -97.7833 17° North 489 563 39,000  Level Fort Worth Center
03:00PM 32.7578 -97.7444 15° North 489 563 39,000  Level Fort Worth Center
03:01PM 32.9039 -97.6931 16° North 489 563 39,000  Level Fort Worth Center
03:02PM 33.0419 -97.6489 15° North 489 563 39,000  Level Fort Worth Center
03:03PM 33.1692 -97.6019 17° North 492 566 39,000  Level Fort Worth Center
03:04PM 33.2842 -97.5600 17° North 486 559 39,000  Level Fort Worth Center
03:05PM 33.4283 -97.5106 16° North 480 552 39,000  Level Fort Worth Center
03:06PM 33.5431 -97.4708 16° North 480 552 39,000  Level Fort Worth Center
03:07PM 33.6869 -97.4233 15° North 475 547 39,000  Level Fort Worth Center
03:08PM 33.8144 -97.3761 17° North 475 547 39,000  Level Fort Worth Center
03:09PM 33.9458 -97.3308 16° North 475 547 39,000  Level Fort Worth Center
03:10PM 34.0731 -97.2856 16° North 475 547 39,000  Level Fort Worth Center
03:11PM 34.1983 -97.2378 18° North 475 547 39,000  Level Fort Worth Center
03:12PM 34.3275 -97.1947 15° North 475 547 39,000  Level Fort Worth Center
03:13PM 34.4569 -97.1467 17° North 475 547 39,000  Level Fort Worth Center
03:14PM 34.5839 -97.1008 17° North 475 547 39,000  Level Fort Worth Center
03:15PM 34.7111 -97.0547 17° North 480 552 39,000  Level Fort Worth Center
03:16PM 34.8425 -97.0061 17° North 480 552 39,000  Level Fort Worth Center
03:17PM 34.9967 -96.9497 17° North 480 552 39,000  Level Fort Worth Center
03:19PM 35.2736 -96.8489 17° North 482 555 39,000  Level Kansas City Center
03:20PM 35.4253 -96.7931 17° North 480 552 39,000  Level Kansas City Center
03:21PM 35.5525 -96.7464 17° North 480 552 39,000 60 Level Kansas City Center
03:22PM 35.6800 -96.7000 16° North 480 552 39,200 420 Climbing Kansas City Center
03:23PM 35.8058 -96.6547 16° North 475 547 39,900 720 Climbing Kansas City Center
03:24PM 35.9278 -96.6094 17° North 465 535 40,700 480 Climbing Kansas City Center
03:25PM 36.0683 -96.5569 17° North 453 521 41,000 120 Climbing Kansas City Center
03:26PM 36.1906 -96.5114 17° North 454 522 41,000  Level Kansas City Center
03:27PM 36.3139 -96.4656 17° North 457 526 41,000  Level Kansas City Center
03:28PM 36.4383 -96.4178 17° North 460 529 41,000  Level Kansas City Center
03:29PM 36.5625 -96.3703 17° North 462 532 41,000  Level Kansas City Center
03:30PM 36.6864 -96.3236 17° North 463 533 41,000  Level Kansas City Center
03:31PM 36.8119 -96.2767 17° North 464 534 41,000  Level Kansas City Center
03:32PM 36.9617 -96.2164 18° North 467 537 41,000  Level Kansas City Center
03:33PM 37.0869 -96.1686 17° North 469 540 41,000  Level Kansas City Center
03:35PM 37.2117 -96.1206 17° North 466 536 41,000  Level Kansas City Center
03:36PM 37.3356 -96.0725 17° North 465 535 41,000  Level Kansas City Center
03:37PM 37.4606 -96.0222 18° North 467 537 41,000  Level Kansas City Center
03:38PM 37.5844 -95.9750 17° North 465 535 41,000  Level Kansas City Center
03:39PM 37.7089 -95.9278 17° North 465 535 41,000  Level Kansas City Center
03:40PM 37.8572 -95.8714 17° North 463 533 41,000  Level Kansas City Center
03:41PM 37.9814 -95.8203 18° North 466 536 41,000  Level Kansas City Center
03:42PM 38.1000 -95.7761 16° North 464 534 41,000  Level Kansas City Center
03:43PM 38.2364 -95.7219 17° North 461 531 41,000  Level Kansas City Center
03:44PM 38.3533 -95.6736 18° North 460 529 41,000  Level Kansas City Center
03:45PM 38.4900 -95.6189 17° North 460 529 41,000  Level Kansas City Center
03:46PM 38.6058 -95.5722 17° North 456 525 41,000  Level Kansas City Center
03:47PM 38.7225 -95.5253 17° North 457 526 41,000  Level Kansas City Center
03:48PM 38.8589 -95.4706 17° North 457 526 41,000  Level Kansas City Center
03:49PM 38.9750 -95.4222 18° North 458 527 41,000  Level Kansas City Center
03:50PM 39.1106 -95.3656 18° North 457 526 41,000  Level Kansas City Center
03:51PM 39.2417 -95.3128 17° North 457 526 41,000  Level Kansas City Center
03:52PM 39.3644 -95.2631 17° North 460 529 41,000  Level Kansas City Center
03:53PM 39.4953 -95.2083 18° North 458 527 41,000  Level Kansas City Center
03:54PM 39.6047 -95.1633 18° North 457 526 41,000  Level Kansas City Center
03:55PM 39.7406 -95.1078 17° North 458 527 41,000  Level Kansas City Center
03:56PM 39.8581 -95.0583 18° North 462 532 41,000  Level Kansas City Center
03:57PM 39.9942 -95.0017 18° North 460 529 41,000  Level Kansas City Center
03:58PM 40.1111 -94.9531 18° North 459 528 41,000  Level Kansas City Center
03:59PM 40.2136 -94.9086 18° North 463 533 41,000  Level Minneapolis Center
04:00PM 40.3358 -94.8569 18° North 463 533 41,000  Level Minneapolis Center
04:01PM 40.4583 -94.8061 18° North 463 533 41,000  Level Minneapolis Center
04:02PM 40.5811 -94.7525 18° North 465 535 41,000  Level Minneapolis Center
04:03PM 40.7031 -94.7014 18° North 463 533 41,000  Level Minneapolis Center
04:04PM 40.8244 -94.6492 18° North 462 532 41,000  Level Minneapolis Center
04:05PM 40.9714 -94.5858 18° North 463 533 41,000  Level Minneapolis Center
04:06PM 41.0828 -94.5375 18° North 464 534 41,000  Level Minneapolis Center
04:07PM 41.2158 -94.4797 18° North 463 533 41,000 -420 Level Minneapolis Center
04:08PM 41.3389 -94.4269 18° North 464 534 40,200 -900 Descending Minneapolis Center
04:09PM 41.4644 -94.3708 19° North 473 544 39,200 -1,020 Descending Minneapolis Center
04:10PM 41.5894 -94.3158 18° North 474 545 38,200 -1,080 Descending Minneapolis Center
04:11PM 41.7358 -94.2522 18° North 463 533 37,000 -1,080 Descending Minneapolis Center
04:12PM 41.8589 -94.1975 18° North 465 535 36,000 -900 Descending Minneapolis Center
04:14PM 41.9797 -94.1439 18° North 461 531 35,200 -840 Descending Minneapolis Center
04:15PM 42.0958 -94.0917 18° North 446 513 34,300 -1,020 Descending Minneapolis Center
04:16PM 42.2122 -94.0417 18° North 426 490 33,100 -600 Descending Minneapolis Center
04:17PM 42.3242 -93.9897 19° North 428 493 33,000 -60 Descending Minneapolis Center
04:18PM 42.4603 -93.9289 18° North 431 496 33,000  Level Minneapolis Center
04:19PM 42.5939 -93.8667 19° North 424 488 33,000  Level Minneapolis Center
04:20PM 42.7047 -93.8164 18° North 422 486 33,000  Level Minneapolis Center
04:21PM 42.8142 -93.7661 19° North 417 480 33,000  Level Minneapolis Center
04:22PM 42.9228 -93.7156 19° North 415 478 33,000  Level Minneapolis Center
04:23PM 43.0542 -93.6553 19° North 418 481 33,000 -240 Level Minneapolis Center
04:24PM 43.1911 -93.5919 19° North 424 488 32,500 -1,200 Descending Minneapolis Center
04:25PM 43.3000 -93.5494 16° North 421 484 30,600 -2,340 Descending Minneapolis Center
04:27PM 43.4133 -93.5392 North 413 475 27,200 -3,360 Descending Minneapolis Center
04:28PM 43.5481 -93.5283 North 401 461 23,000 -3,660 Descending Minneapolis Center
04:29PM 43.6556 -93.5183 North 390 449 19,600 -3,300 Descending Minneapolis Center
04:30PM 43.7775 -93.5072 North 371 427 16,300 -2,700 Descending Minneapolis Center
04:31PM 43.8753 -93.4972 North 357 411 14,100 -1,440 Descending Minneapolis Center
04:32PM 43.9711 -93.4881 North 346 398 13,400 -1,020 Descending Minneapolis Center
04:33PM 44.0736 -93.4781 North 367 422 12,000 -1,860 Descending Minneapolis Center
04:34PM 44.1683 -93.4689 North 333 383 9,600 -1,980 Descending Minneapolis Center
04:35PM 44.2517 -93.4617 North 299 344 8,000 -1,200 Descending Minneapolis Center
04:36PM 44.3425 -93.4592 North 276 318 7,200 -960 Descending Minneapolis Center
04:37PM 44.4189 -93.4561 North 274 315 6,100 -1,080 Descending Minneapolis Center
04:38PM 44.4944 -93.4544 North 272 313 5,000 -1,080 Descending Minneapolis Center
04:39PM 44.5689 -93.4522 North 268 308 3,700 -1,140 Descending Minneapolis Center
04:40PM 44.6397 -93.4492 North 254 292 2,500 -600 Descending Minneapolis Center
04:41PM 44.7172 -93.4475 North 232 267 2,500 -60 Level Minneapolis Center
04:42PM 44.7869 -93.4656 350° North 212 244 2,400 -480 Descending Minneapolis Center
04:43PM 44.8131 -93.5114 309° West 157 181 1,600 -780 Descending Minneapolis Center
04:44PM 44.8294 -93.4708 60° Northeast 144 166 900 -720 Descending Minneapolis Center
04:46PM 44.8275 -93.4586 270° West  Level Estimated
04:53PM 44.8275 -93.4586 270° West  Level Estimated